createdAt,value
2022-10-03T00:01:01.993Z,3.40
2022-10-03T00:03:38.612Z,3.10
2022-10-03T00:06:16.142Z,3.30
2022-10-03T00:09:00.030Z,3.10
2022-10-03T00:11:37.717Z,3.30
2022-10-03T00:14:24.712Z,3.30
2022-10-03T00:17:00.272Z,3.20
2022-10-03T00:19:37.494Z,3.30
2022-10-03T00:22:18.681Z,3.50
2022-10-03T00:24:58.076Z,3.20
2022-10-03T00:27:37.810Z,3.50
2022-10-03T00:30:21.227Z,3.30
2022-10-03T00:33:14.377Z,3.40
2022-10-03T00:36:01.545Z,3.80
2022-10-03T00:39:04.892Z,3.50
2022-10-03T00:41:56.220Z,3.20
2022-10-03T00:44:46.566Z,2.90
2022-10-03T00:47:29.812Z,3.60
2022-10-03T00:50:30.694Z,3.00
2022-10-03T00:53:17.206Z,4.20
2022-10-03T00:55:55.461Z,2.80
2022-10-03T00:58:34.940Z,3.50
2022-10-03T01:01:24.936Z,4.00
2022-10-03T01:04:05.747Z,3.50
2022-10-03T01:06:42.529Z,4.10
2022-10-03T01:09:23.819Z,4.00
2022-10-03T01:12:08.295Z,3.50
2022-10-03T01:14:54.520Z,4.50
2022-10-03T01:17:33.181Z,4.70
2022-10-03T01:20:19.442Z,4.40
2022-10-03T01:23:02.422Z,4.30
2022-10-03T01:25:40.220Z,4.00
2022-10-03T01:28:48.334Z,3.60
2022-10-03T01:31:21.886Z,4.70
2022-10-03T01:33:55.807Z,4.30
2022-10-03T01:36:30.424Z,3.90
2022-10-03T01:39:04.077Z,4.20
2022-10-03T01:41:39.231Z,4.60
2022-10-03T01:44:16.129Z,4.20
2022-10-03T01:46:49.305Z,4.40
2022-10-03T01:49:21.945Z,4.00
2022-10-03T01:51:56.529Z,4.00
2022-10-03T01:54:32.065Z,4.60
2022-10-03T01:57:04.594Z,4.40
2022-10-03T01:59:40.516Z,4.40
2022-10-03T02:02:17.773Z,4.60
2022-10-03T02:04:53.169Z,3.90
2022-10-03T02:07:27.441Z,4.10
2022-10-03T02:10:04.240Z,4.80
2022-10-03T02:12:36.786Z,3.70
2022-10-03T02:15:17.408Z,4.20
2022-10-03T02:17:55.349Z,4.30
2022-10-03T02:20:32.586Z,3.90
2022-10-03T02:23:05.103Z,3.70
2022-10-03T02:25:53.252Z,5.70
2022-10-03T02:28:40.585Z,4.20
2022-10-03T02:31:57.647Z,4.30
2022-10-03T02:35:11.428Z,3.50
2022-10-03T02:37:59.150Z,3.70
2022-10-03T02:40:56.038Z,3.40
2022-10-03T02:44:01.695Z,4.00
2022-10-03T02:47:14.820Z,4.70
2022-10-03T02:50:14.007Z,3.60
2022-10-03T02:53:09.526Z,3.40
2022-10-03T02:55:57.500Z,3.10
2022-10-03T02:58:52.478Z,3.70
2022-10-03T03:01:43.272Z,3.80
2022-10-03T03:04:40.750Z,3.50
2022-10-03T03:07:26.840Z,3.70
2022-10-03T03:10:18.291Z,3.90
2022-10-03T03:13:27.369Z,3.50
2022-10-03T03:16:33.291Z,4.00
2022-10-03T03:19:29.405Z,3.40
2022-10-03T03:22:07.264Z,3.40
2022-10-03T03:24:47.171Z,3.40
2022-10-03T03:27:37.591Z,3.50
2022-10-03T03:30:11.919Z,3.70
2022-10-03T03:32:51.004Z,3.00
2022-10-03T03:35:28.458Z,3.40
2022-10-03T03:38:05.068Z,3.00
2022-10-03T03:40:45.275Z,3.90
2022-10-03T03:43:24.703Z,3.40
2022-10-03T03:46:14.183Z,3.10
2022-10-03T03:49:09.884Z,3.10
2022-10-03T03:51:47.090Z,3.50
2022-10-03T03:54:45.347Z,3.90
2022-10-03T03:57:40.558Z,3.80
2022-10-03T04:00:16.612Z,3.60
2022-10-03T04:03:02.758Z,3.60
2022-10-03T04:06:06.774Z,4.00
2022-10-03T04:08:49.745Z,3.30
2022-10-03T04:11:27.724Z,3.50
2022-10-03T04:14:14.097Z,3.40
2022-10-03T04:17:27.469Z,3.40
2022-10-03T04:20:09.227Z,4.10
2022-10-03T04:22:53.396Z,3.30
2022-10-03T04:25:36.423Z,3.60
2022-10-03T04:28:20.197Z,3.40
2022-10-03T04:30:59.736Z,3.40
2022-10-03T04:33:37.892Z,3.30
2022-10-03T04:36:31.497Z,3.60
2022-10-03T04:39:06.987Z,3.50
2022-10-03T04:41:44.240Z,3.70
2022-10-03T04:44:25.333Z,3.40
2022-10-03T04:46:57.976Z,3.40
2022-10-03T04:49:32.928Z,3.80
2022-10-03T04:52:07.006Z,3.60
2022-10-03T04:54:48.567Z,3.20
2022-10-03T04:57:24.907Z,3.20
2022-10-03T05:00:00.848Z,4.00
2022-10-03T05:02:38.436Z,3.90
2022-10-03T05:05:22.288Z,3.80
2022-10-03T05:07:59.888Z,3.10
2022-10-03T05:10:47.276Z,4.00
2022-10-03T05:13:23.655Z,4.50
2022-10-03T05:16:01.859Z,3.60
2022-10-03T05:18:35.934Z,4.00
2022-10-03T05:21:13.310Z,4.00
2022-10-03T05:24:03.082Z,4.50
2022-10-03T05:26:45.532Z,4.30
2022-10-03T05:29:25.303Z,4.50
2022-10-03T05:32:04.245Z,4.30
2022-10-03T05:34:44.912Z,4.80
2022-10-03T05:37:35.316Z,4.20
2022-10-03T05:40:08.486Z,4.50
2022-10-03T05:42:44.049Z,4.20
2022-10-03T05:45:24.677Z,4.30
2022-10-03T05:47:58.937Z,4.60
2022-10-03T05:51:03.896Z,4.70
2022-10-03T05:53:55.853Z,5.00
2022-10-03T05:56:40.168Z,5.20
2022-10-03T05:59:34.525Z,4.80
2022-10-03T06:02:34.975Z,4.40
2022-10-03T06:05:15.603Z,4.20
2022-10-03T06:07:54.252Z,3.60
2022-10-03T06:10:43.847Z,4.10
2022-10-03T06:13:19.984Z,4.10
2022-10-03T06:16:07.157Z,4.40
2022-10-03T06:18:51.066Z,4.80
2022-10-03T06:21:42.558Z,5.00
2022-10-03T06:24:42.144Z,5.10
2022-10-03T06:28:02.736Z,4.60
2022-10-03T06:30:51.249Z,4.80
2022-10-03T06:33:53.788Z,4.80
2022-10-03T06:36:50.869Z,4.70
2022-10-03T06:39:45.839Z,5.10
2022-10-03T06:42:47.024Z,5.00
2022-10-03T06:46:04.347Z,4.80
2022-10-03T06:49:04.399Z,4.20
2022-10-03T06:51:54.775Z,4.60
2022-10-03T06:55:07.789Z,4.20
2022-10-03T06:57:57.870Z,4.00
2022-10-03T07:00:30.708Z,5.10
2022-10-03T07:03:31.699Z,4.80
2022-10-03T07:06:30.294Z,4.20
2022-10-03T07:09:30.551Z,5.00
2022-10-03T07:12:34.321Z,4.70
2022-10-03T07:16:04.689Z,4.40
2022-10-03T07:18:56.900Z,4.50
2022-10-03T07:21:37.235Z,4.20
2022-10-03T07:24:17.586Z,4.40
2022-10-03T07:27:22.396Z,4.40
2022-10-03T07:30:17.229Z,4.20
2022-10-03T07:33:21.959Z,4.00
2022-10-03T07:36:44.407Z,3.70
2022-10-03T07:39:42.134Z,4.30
2022-10-03T07:42:22.430Z,4.00
2022-10-03T07:45:24.365Z,3.70
2022-10-03T07:48:17.665Z,3.90
2022-10-03T07:50:53.514Z,3.70
2022-10-03T07:53:39.655Z,3.70
2022-10-03T07:56:18.027Z,4.40
2022-10-03T07:58:55.119Z,4.60
2022-10-03T08:01:43.981Z,3.70
2022-10-03T08:04:45.047Z,3.50
2022-10-03T08:07:26.955Z,3.60
2022-10-03T08:10:09.095Z,3.60
2022-10-03T08:15:29.110Z,3.60
2022-10-03T08:18:31.223Z,3.70
2022-10-03T08:24:15.647Z,4.20
2022-10-03T08:27:08.056Z,4.10
2022-10-03T08:30:01.429Z,3.60
2022-10-03T08:33:13.262Z,3.70
2022-10-03T08:36:18.202Z,3.90
2022-10-03T08:39:04.227Z,3.30
2022-10-03T08:42:05.440Z,3.70
2022-10-03T08:45:03.909Z,3.60
2022-10-03T08:47:51.177Z,4.10
2022-10-03T08:50:34.916Z,3.60
2022-10-03T08:53:43.016Z,3.40
2022-10-03T08:56:15.220Z,2.90
2022-10-03T08:59:17.639Z,3.30
2022-10-03T09:02:08.169Z,3.30
2022-10-03T09:04:56.634Z,4.30
2022-10-03T09:07:44.570Z,3.00
2022-10-03T09:10:36.772Z,2.80
2022-10-03T09:13:20.413Z,2.90
2022-10-03T09:16:18.488Z,2.90
2022-10-03T09:18:56.640Z,2.90
2022-10-03T09:22:13.012Z,2.70
2022-10-03T09:25:05.504Z,3.30
2022-10-03T09:27:44.954Z,2.60
2022-10-03T09:30:29.446Z,3.10
2022-10-03T09:33:31.846Z,2.70
2022-10-03T09:36:25.779Z,2.80
2022-10-03T09:39:06.640Z,3.40
2022-10-03T09:41:53.881Z,3.50
2022-10-03T09:44:47.796Z,3.20
2022-10-03T09:47:49.278Z,2.60
2022-10-03T09:51:01.621Z,3.10
2022-10-03T09:53:41.127Z,3.70
2022-10-03T09:56:38.692Z,3.50
2022-10-03T09:59:26.605Z,3.00
2022-10-03T10:02:03.402Z,3.10
2022-10-03T10:04:55.719Z,3.30
2022-10-03T10:07:58.209Z,3.00
2022-10-03T10:10:45.479Z,2.60
2022-10-03T10:13:20.725Z,2.50
2022-10-03T10:16:12.551Z,2.90
2022-10-03T10:19:27.598Z,1.80
2022-10-03T10:22:18.369Z,2.00
2022-10-03T10:25:25.116Z,2.20
2022-10-03T10:28:24.508Z,2.20
2022-10-03T10:31:18.093Z,2.70
2022-10-03T10:34:15.835Z,2.70
2022-10-03T10:37:10.762Z,2.30
2022-10-03T10:40:13.149Z,2.10
2022-10-03T10:43:37.918Z,1.80
2022-10-03T10:46:37.644Z,2.30
2022-10-03T10:49:41.017Z,2.00
2022-10-03T10:52:50.343Z,2.00
2022-10-03T10:55:56.839Z,2.20
2022-10-03T10:59:01.613Z,2.00
2022-10-03T11:02:10.523Z,2.20
2022-10-03T11:05:29.941Z,2.30
2022-10-03T11:08:36.017Z,1.80
2022-10-03T11:11:54.009Z,1.90
2022-10-03T11:14:43.889Z,1.90
2022-10-03T11:17:51.233Z,2.40
2022-10-03T11:20:58.646Z,1.90
2022-10-03T11:24:04.306Z,1.80
2022-10-03T11:26:57.932Z,1.50
2022-10-03T11:30:00.410Z,1.90
2022-10-03T11:33:05.725Z,1.70
2022-10-03T11:36:11.736Z,1.40
2022-10-03T11:38:46.725Z,1.40
2022-10-03T11:41:21.956Z,2.10
2022-10-03T11:44:05.564Z,1.30
2022-10-03T11:46:51.946Z,1.60
2022-10-03T11:49:33.772Z,1.50
2022-10-03T11:52:10.223Z,1.60
2022-10-03T11:54:42.424Z,1.60
2022-10-03T11:57:18.992Z,1.50
2022-10-03T12:00:03.155Z,1.40
2022-10-03T12:02:57.660Z,1.30
2022-10-03T12:05:34.206Z,1.80
2022-10-03T12:08:33.465Z,2.20
2022-10-03T12:11:09.614Z,1.90
2022-10-03T12:13:43.773Z,1.20
2022-10-03T12:16:21.127Z,1.60
2022-10-03T12:18:59.401Z,1.10
2022-10-03T12:21:37.802Z,2.20
2022-10-03T12:24:25.295Z,1.40
2022-10-03T12:27:00.916Z,2.20
2022-10-03T12:29:33.733Z,2.50
2022-10-03T12:32:16.098Z,1.40
2022-10-03T12:34:50.836Z,1.30
2022-10-03T12:37:33.030Z,1.60
2022-10-03T12:40:10.988Z,1.20
2022-10-03T12:42:46.654Z,1.40
2022-10-03T12:45:28.227Z,1.70
2022-10-03T12:50:43.433Z,1.30
2022-10-03T12:53:33.056Z,1.70
2022-10-03T12:56:12.564Z,1.20
2022-10-03T12:58:51.180Z,1.30
2022-10-03T13:01:29.214Z,1.50
2022-10-03T13:04:02.017Z,2.20
2022-10-03T13:07:04.061Z,2.10
2022-10-03T13:09:55.229Z,1.90
2022-10-03T13:12:31.472Z,1.40
2022-10-03T13:15:43.280Z,1.70
2022-10-03T13:18:37.659Z,1.90
2022-10-03T13:21:33.745Z,1.70
2022-10-03T13:24:07.454Z,1.70
2022-10-03T13:26:47.123Z,2.00
2022-10-03T13:29:26.439Z,2.10
2022-10-03T13:32:07.012Z,2.10
2022-10-03T13:34:51.540Z,1.70
2022-10-03T13:37:26.274Z,2.00
2022-10-03T13:39:58.882Z,2.10
2022-10-03T13:42:35.001Z,1.90
2022-10-03T13:45:07.407Z,1.80
2022-10-03T13:47:51.789Z,2.10
2022-10-03T13:50:25.483Z,1.70
2022-10-03T13:53:01.260Z,1.60
2022-10-03T13:55:45.935Z,1.80
2022-10-03T13:58:44.717Z,1.80
2022-10-03T14:01:35.426Z,1.80
2022-10-03T14:04:21.904Z,1.80
2022-10-03T14:06:53.475Z,1.40
2022-10-03T14:09:31.659Z,1.80
2022-10-03T14:12:10.583Z,1.60
2022-10-03T14:14:55.805Z,1.90
2022-10-03T14:17:30.457Z,1.90
2022-10-03T14:20:09.556Z,2.00
2022-10-03T14:23:07.481Z,2.00
2022-10-03T14:25:41.367Z,1.60
2022-10-03T14:28:15.149Z,1.90
2022-10-03T14:31:05.457Z,1.80
2022-10-03T14:33:41.340Z,1.90
2022-10-03T14:36:24.361Z,2.10
2022-10-03T14:39:02.480Z,2.00
2022-10-03T14:41:47.977Z,2.20
2022-10-03T14:44:21.564Z,2.20
2022-10-03T14:46:55.425Z,2.10
2022-10-03T14:49:53.562Z,2.00
2022-10-03T14:52:30.287Z,2.30
2022-10-03T14:55:04.659Z,2.00
2022-10-03T14:57:58.717Z,1.90
2022-10-03T15:00:39.145Z,2.20
2022-10-03T15:06:21.966Z,2.00
2022-10-03T15:08:54.943Z,2.10
2022-10-03T15:11:28.719Z,2.30
2022-10-03T15:14:03.091Z,2.30
2022-10-03T15:16:37.470Z,2.60
2022-10-03T15:19:13.077Z,2.70
2022-10-03T15:21:46.475Z,2.70
2022-10-03T15:24:25.054Z,2.70
2022-10-03T15:27:02.314Z,2.70
2022-10-03T15:29:34.369Z,2.80
2022-10-03T15:32:06.333Z,2.90
2022-10-03T15:34:41.628Z,3.90
2022-10-03T15:37:17.039Z,3.80
2022-10-03T15:39:49.011Z,2.70
2022-10-03T15:42:25.763Z,2.50
2022-10-03T15:44:58.264Z,2.70
2022-10-03T15:47:30.551Z,2.70
2022-10-03T15:50:04.734Z,3.00
2022-10-03T15:52:41.047Z,2.60
2022-10-03T15:55:19.946Z,2.80
2022-10-03T15:57:52.756Z,2.40
2022-10-03T16:00:28.369Z,2.80
2022-10-03T16:03:06.814Z,3.10
2022-10-03T16:05:38.753Z,3.50
2022-10-03T16:10:42.036Z,3.30
2022-10-03T16:13:23.848Z,3.10
2022-10-03T16:18:56.853Z,2.90
2022-10-03T16:21:43.800Z,2.80
2022-10-03T16:24:23.059Z,2.50
2022-10-03T16:26:56.729Z,3.50
2022-10-03T16:29:29.518Z,2.50
2022-10-03T16:32:03.146Z,1.80
2022-10-03T16:34:35.528Z,1.60
2022-10-03T16:37:07.799Z,1.70
2022-10-03T16:39:40.002Z,1.40
2022-10-03T16:42:19.674Z,1.80
2022-10-03T16:44:55.630Z,1.80
2022-10-03T16:47:36.976Z,1.50
2022-10-03T16:50:28.398Z,1.80
2022-10-03T16:53:00.807Z,1.90
2022-10-03T16:55:34.342Z,1.90
2022-10-03T16:58:07.432Z,1.70
2022-10-03T17:00:43.510Z,1.60
2022-10-03T17:03:20.513Z,2.00
2022-10-03T17:05:52.248Z,1.50
2022-10-03T17:11:18.274Z,1.60
2022-10-03T17:13:52.632Z,1.50
2022-10-03T17:16:33.517Z,1.80
2022-10-03T17:19:17.501Z,2.10
2022-10-03T17:21:54.155Z,1.50
2022-10-03T17:24:33.463Z,1.80
2022-10-03T17:27:07.654Z,1.40
2022-10-03T17:29:42.667Z,1.70
2022-10-03T17:32:16.558Z,1.60
2022-10-03T17:34:49.955Z,1.40
2022-10-03T17:37:49.371Z,2.00
2022-10-03T17:40:23.664Z,1.70
2022-10-03T17:42:57.241Z,1.80
2022-10-03T17:45:33.722Z,1.50
2022-10-03T17:48:10.060Z,1.50
2022-10-03T17:50:45.311Z,1.90
2022-10-03T17:53:20.989Z,1.80
2022-10-03T17:55:57.126Z,1.70
2022-10-03T17:58:30.202Z,2.20
2022-10-03T18:01:07.346Z,1.70
2022-10-03T18:03:43.013Z,2.30
2022-10-03T18:06:44.032Z,1.90
2022-10-03T18:09:32.956Z,1.90
2022-10-03T18:12:12.482Z,2.10
2022-10-03T18:14:54.212Z,2.00
2022-10-03T18:17:28.100Z,2.00
2022-10-03T18:20:06.969Z,2.00
2022-10-03T18:22:41.123Z,2.50
2022-10-03T18:25:33.903Z,2.40
2022-10-03T18:28:20.555Z,2.50
2022-10-03T18:30:53.905Z,2.70
2022-10-03T18:33:27.851Z,2.70
2022-10-03T18:35:59.155Z,2.60
2022-10-03T18:38:30.888Z,2.90
2022-10-03T18:43:45.083Z,1.90
2022-10-03T18:46:21.064Z,1.80
2022-10-03T18:49:28.309Z,1.80
2022-10-03T18:51:52.675Z,2.10
2022-10-03T18:54:35.211Z,1.70
2022-10-03T18:57:12.550Z,1.70
2022-10-03T18:59:49.034Z,2.10
2022-10-03T19:02:23.149Z,1.50
2022-10-03T19:04:57.313Z,1.90
2022-10-03T19:07:31.505Z,1.60
2022-10-03T19:10:33.265Z,1.70
2022-10-03T19:13:10.955Z,2.10
2022-10-03T19:15:50.146Z,2.20
2022-10-03T19:18:26.425Z,2.40
2022-10-03T19:20:59.224Z,1.70
2022-10-03T19:23:33.231Z,2.30
2022-10-03T19:26:07.331Z,2.30
2022-10-03T19:28:39.786Z,1.90
2022-10-03T19:31:17.606Z,1.90
2022-10-03T19:33:50.448Z,1.90
2022-10-03T19:36:23.620Z,1.20
2022-10-03T19:38:55.275Z,1.70
2022-10-03T19:41:30.434Z,1.60
2022-10-03T19:44:06.991Z,1.60
2022-10-03T19:46:56.773Z,2.10
2022-10-03T19:49:33.541Z,2.00
2022-10-03T19:52:18.739Z,2.20
2022-10-03T19:54:53.360Z,2.70
2022-10-03T19:57:28.671Z,2.60
2022-10-03T20:00:01.874Z,2.90
2022-10-03T20:02:43.887Z,3.10
2022-10-03T20:05:20.231Z,2.70
2022-10-03T20:07:53.750Z,1.80
2022-10-03T20:10:48.661Z,2.10
2022-10-03T20:13:20.212Z,2.20
2022-10-03T20:15:52.628Z,2.60
2022-10-03T20:18:26.409Z,2.60
2022-10-03T20:20:58.515Z,2.10
2022-10-03T20:23:31.264Z,2.50
2022-10-03T20:26:04.462Z,2.00
2022-10-03T20:28:49.964Z,2.10
2022-10-03T20:31:25.576Z,2.50
2022-10-03T20:33:57.864Z,2.10
2022-10-03T20:36:30.218Z,1.80
2022-10-03T20:39:06.109Z,1.80
2022-10-03T20:41:45.048Z,1.60
2022-10-03T20:44:19.914Z,1.60
2022-10-03T20:46:52.210Z,1.50
2022-10-03T20:49:28.393Z,1.40
2022-10-03T20:52:04.054Z,2.00
2022-10-03T20:54:49.580Z,1.50
2022-10-03T20:57:21.996Z,1.80
2022-10-03T20:59:56.841Z,1.20
2022-10-03T21:02:32.993Z,1.40
2022-10-03T21:05:06.493Z,1.40
2022-10-03T21:07:41.788Z,1.50
2022-10-03T21:10:29.105Z,1.60
2022-10-03T21:13:02.368Z,1.40
2022-10-03T21:15:41.128Z,1.90
2022-10-03T21:18:20.060Z,1.60
2022-10-03T21:20:57.911Z,1.50
2022-10-03T21:23:29.301Z,1.50
2022-10-03T21:26:01.844Z,1.60
2022-10-03T21:28:35.577Z,1.60
2022-10-03T21:31:34.858Z,1.60
2022-10-03T21:34:09.953Z,1.50
2022-10-03T21:36:48.487Z,1.60
2022-10-03T21:39:22.442Z,1.40
2022-10-03T21:42:03.493Z,1.40
2022-10-03T21:44:47.629Z,1.10
2022-10-03T21:47:27.528Z,1.40
2022-10-03T21:50:01.214Z,1.40
2022-10-03T21:52:58.960Z,1.20
2022-10-03T21:55:52.373Z,1.40
2022-10-03T21:58:36.290Z,1.30
2022-10-03T22:01:14.165Z,1.50
2022-10-03T22:03:51.734Z,2.10
2022-10-03T22:06:25.726Z,2.40
2022-10-03T22:09:01.054Z,2.10
2022-10-03T22:11:40.534Z,2.80
2022-10-03T22:14:19.378Z,2.30
2022-10-03T22:16:54.210Z,1.80
2022-10-03T22:19:34.281Z,1.40
2022-10-03T22:22:12.932Z,2.00
2022-10-03T22:24:51.817Z,1.80
2022-10-03T22:27:25.459Z,1.50
2022-10-03T22:30:02.176Z,1.60
2022-10-03T22:32:36.431Z,1.50
2022-10-03T22:35:16.121Z,1.20
2022-10-03T22:37:47.598Z,1.40
2022-10-03T22:40:19.339Z,1.20
2022-10-03T22:45:23.479Z,1.70
2022-10-03T22:47:56.275Z,1.90
2022-10-03T22:50:30.050Z,2.50
2022-10-03T22:53:01.455Z,2.50
2022-10-03T22:55:33.226Z,2.50
2022-10-03T22:58:04.891Z,2.60
2022-10-03T23:00:36.502Z,3.00
2022-10-03T23:03:10.179Z,3.30
2022-10-03T23:06:04.587Z,2.60
2022-10-03T23:08:43.177Z,2.90
2022-10-03T23:11:18.657Z,2.90
2022-10-03T23:13:50.042Z,2.30
2022-10-03T23:16:30.288Z,2.30
2022-10-03T23:19:12.147Z,2.10
2022-10-03T23:24:22.756Z,2.90
2022-10-03T23:27:17.488Z,2.10
2022-10-03T23:29:48.861Z,2.60
2022-10-03T23:32:22.216Z,2.40
2022-10-03T23:35:17.238Z,2.20
2022-10-03T23:37:49.386Z,2.30
2022-10-03T23:40:41.291Z,2.40
2022-10-03T23:43:34.844Z,2.10
2022-10-03T23:46:10.380Z,2.00
2022-10-03T23:48:46.149Z,2.40
2022-10-03T23:51:18.130Z,2.00
2022-10-03T23:53:51.609Z,2.30
2022-10-03T23:56:34.893Z,2.30
2022-10-03T23:59:18.792Z,2.50
